Archiv-/Tagesdaten

--Timestamp---	Temp	Chill	HIndex	Humid	Dewpt	 Wind 	HiWind	WindDir	Rain 	Barom	Solar	 ET  	 UV 
--------------	----	-----	------	-----	-----	------	------	-------	-----	-----	-----	-----	----
20100228 00:00	4.6	3.1	4.6	50	-4.9	6	11	135	0.0	997.5	0	0.051	0.0
20100228 00:05	4.6	3.1	4.6	51	-4.7	6	10	158	0.0	997.3	0	0.000	0.0
20100228 00:10	4.6	3.1	4.6	51	-4.7	6	14	135	0.0	997.3	0	0.000	0.0
20100228 00:15	4.7	4.7	4.7	50	-4.9	5	11	135	0.0	997.2	0	0.000	0.0
20100228 00:20	4.7	4.7	4.7	50	-4.9	5	11	135	0.0	997.2	0	0.000	0.0
20100228 00:25	4.7	4.7	4.7	49	-5.1	5	10	158	0.0	997.2	0	0.000	0.0
20100228 00:30	4.8	4.8	4.8	49	-5.0	3	8	158	0.0	997.1	0	0.000	0.0
20100228 00:35	4.9	4.9	4.9	50	-4.7	3	6	158	0.0	997.0	0	0.000	0.0
20100228 00:40	4.9	4.9	4.9	50	-4.7	2	5	158	0.0	996.9	0	0.000	0.0
20100228 00:45	4.9	4.9	4.9	50	-4.7	0	2	158	0.0	996.9	0	0.000	0.0
20100228 00:50	4.9	4.9	4.9	50	-4.7	2	5	158	0.0	996.8	0	0.000	0.0
20100228 00:55	4.9	4.9	4.9	50	-4.7	2	5	158	0.0	996.7	0	0.000	0.0
20100228 01:00	4.8	4.8	4.8	51	-4.4	2	3	158	0.0	996.6	0	0.025	0.0
20100228 01:05	4.8	4.8	4.8	50	-4.8	0	0	-100000	0.0	996.4	0	0.000	0.0
20100228 01:10	4.8	4.8	4.8	50	-4.7	0	0	-100000	0.0	996.4	0	0.000	0.0
20100228 01:15	4.8	4.8	4.8	51	-4.4	0	0	-100000	0.0	996.2	0	0.000	0.0
20100228 01:20	4.8	4.8	4.8	50	-4.7	0	0	-100000	0.0	996.3	0	0.000	0.0
20100228 01:25	4.8	4.8	4.8	51	-4.4	0	0	-100000	0.0	996.3	0	0.000	0.0
20100228 01:30	4.8	4.8	4.8	51	-4.4	0	0	-100000	0.0	996.2	0	0.000	0.0
20100228 01:35	4.8	4.8	4.8	52	-4.2	0	0	-100000	0.0	996.2	0	0.000	0.0
20100228 01:40	4.6	4.6	4.6	57	-3.2	0	2	158	0.0	996.3	0	0.000	0.0
20100228 01:45	4.3	4.3	4.3	56	-3.7	0	0	-100000	0.0	996.1	0	0.000	0.0
20100228 01:50	4.1	4.1	4.1	58	-3.4	0	2	158	0.0	996.0	0	0.000	0.0
20100228 01:55	4.0	4.0	4.0	59	-3.3	2	3	158	0.0	995.9	0	0.000	0.0
20100228 02:00	3.9	3.9	3.9	59	-3.3	0	5	158	0.0	996.0	0	0.025	0.0
20100228 02:05	3.9	3.9	3.9	58	-3.6	3	5	158	0.0	995.9	0	0.000	0.0
20100228 02:10	3.9	3.9	3.9	58	-3.6	3	5	158	0.0	995.8	0	0.000	0.0
20100228 02:15	4.1	4.1	4.1	55	-4.1	3	5	158	0.0	995.6	0	0.000	0.0
20100228 02:20	4.2	4.2	4.2	55	-4.0	2	5	158	0.0	995.4	0	0.000	0.0
20100228 02:25	4.3	4.3	4.3	55	-3.9	0	3	158	0.0	995.2	0	0.000	0.0
20100228 02:30	4.4	4.4	4.4	55	-3.8	3	6	158	0.0	995.2	0	0.000	0.0
20100228 02:35	4.6	4.6	4.6	54	-3.9	5	10	135	0.0	995.1	0	0.000	0.0
20100228 02:40	4.7	4.7	4.7	54	-3.8	2	5	158	0.0	995.1	0	0.000	0.0
20100228 02:45	4.8	4.8	4.8	53	-4.0	0	0	-100000	0.0	995.0	0	0.000	0.0
20100228 02:50	4.8	4.8	4.8	53	-3.9	0	3	158	0.0	994.9	0	0.000	0.0
20100228 02:55	4.9	4.9	4.9	53	-3.8	0	2	158	0.0	994.7	0	0.000	0.0
20100228 03:00	5.0	5.0	5.0	53	-3.8	2	3	158	0.0	994.8	0	0.025	0.0
20100228 03:05	5.1	5.1	5.1	52	-4.0	2	5	158	0.0	994.6	0	0.000	0.0
20100228 03:10	5.1	5.1	5.1	54	-3.4	5	6	158	0.0	994.3	0	0.000	0.0
20100228 03:15	5.1	5.1	5.1	55	-3.2	3	8	158	0.0	994.2	0	0.000	0.0
20100228 03:20	5.1	5.1	5.1	56	-3.0	2	6	135	0.0	994.2	0	0.000	0.0
20100228 03:25	5.1	5.1	5.1	55	-3.2	3	6	135	0.0	994.3	0	0.000	0.0
20100228 03:30	5.2	5.2	5.2	55	-3.1	3	6	180	0.0	994.0	0	0.000	0.0
20100228 03:35	5.3	5.3	5.3	59	-2.0	3	6	180	0.0	993.9	0	0.000	0.0
20100228 03:40	5.3	5.3	5.3	60	-1.8	3	6	158	0.0	993.7	0	0.000	0.0
20100228 03:45	5.3	5.3	5.3	62	-1.4	3	6	158	0.0	993.7	0	0.000	0.0
20100228 03:50	5.3	5.3	5.3	63	-1.1	2	5	158	0.0	993.6	0	0.000	0.0
20100228 03:55	5.3	5.3	5.3	63	-1.2	2	5	158	0.0	993.5	0	0.000	0.0
20100228 04:00	5.3	5.3	5.3	64	-0.9	3	6	158	0.0	993.3	0	0.025	0.0
20100228 04:05	5.4	5.4	5.4	65	-0.7	3	6	135	0.0	993.4	0	0.000	0.0
20100228 04:10	5.4	5.4	5.4	62	-1.3	5	6	135	0.0	993.2	0	0.000	0.0
20100228 04:15	5.6	5.6	5.6	62	-1.1	3	8	135	0.0	993.2	0	0.000	0.0
20100228 04:20	5.7	5.7	5.7	59	-1.7	5	8	135	0.0	993.0	0	0.000	0.0
20100228 04:25	5.8	4.6	5.8	58	-1.8	6	11	135	0.0	992.9	0	0.000	0.0
20100228 04:30	5.9	5.9	5.9	58	-1.7	5	10	135	0.0	992.8	0	0.000	0.0
20100228 04:35	5.8	5.8	5.8	57	-2.0	5	8	135	0.0	992.6	0	0.000	0.0
20100228 04:40	5.8	5.8	5.8	58	-1.8	5	6	135	0.0	992.7	0	0.000	0.0
20100228 04:45	5.7	5.7	5.7	58	-1.9	3	6	135	0.0	992.7	0	0.000	0.0
20100228 04:50	5.7	5.7	5.7	58	-1.9	5	8	112	0.0	992.5	0	0.000	0.0
20100228 04:55	5.7	5.7	5.7	59	-1.7	5	11	112	0.0	992.6	0	0.000	0.0
20100228 05:00	5.7	3.9	5.7	59	-1.7	8	14	112	0.0	992.2	0	0.025	0.0
20100228 05:05	5.7	3.9	5.7	61	-1.3	8	14	112	0.0	992.7	0	0.000	0.0
20100228 05:10	5.7	3.5	5.7	61	-1.3	10	14	112	0.0	992.5	0	0.000	0.0
20100228 05:15	5.7	4.4	5.7	62	-1.0	6	10	112	0.0	992.6	0	0.000	0.0
20100228 05:20	5.7	5.7	5.7	62	-1.0	5	8	135	0.0	992.6	0	0.000	0.0
20100228 05:25	5.6	5.6	5.6	62	-1.1	5	8	112	0.0	992.6	0	0.000	0.0
20100228 05:30	5.6	5.6	5.6	64	-0.7	5	11	135	0.0	992.5	0	0.000	0.0
20100228 05:35	5.4	5.4	5.4	65	-0.6	3	8	112	0.0	992.5	0	0.000	0.0
20100228 05:40	5.4	5.4	5.4	65	-0.7	5	10	112	0.0	992.5	0	0.000	0.0
20100228 05:45	5.3	4.0	5.3	65	-0.7	6	11	112	0.0	992.4	0	0.000	0.0
20100228 05:50	5.2	3.8	5.2	66	-0.7	6	11	112	0.0	992.4	0	0.000	0.0
20100228 05:55	5.1	5.1	5.1	66	-0.8	5	10	112	0.0	992.5	0	0.000	0.0
20100228 06:00	5.1	5.1	5.1	67	-0.6	3	6	135	0.0	992.4	0	0.025	0.0
20100228 06:05	5.0	5.0	5.0	67	-0.6	2	5	135	0.0	992.4	0	0.000	0.0
20100228 06:10	5.0	5.0	5.0	67	-0.6	3	8	112	0.0	992.6	0	0.000	0.0
20100228 06:15	5.1	5.1	5.1	67	-0.6	0	3	112	0.0	992.6	0	0.000	0.0
20100228 06:20	5.1	5.1	5.1	68	-0.4	3	10	22	0.0	992.5	0	0.000	0.0
20100228 06:25	4.8	3.4	4.8	69	-0.4	6	10	22	0.0	992.6	0	0.000	0.0
20100228 06:30	4.6	2.7	4.6	70	-0.4	8	11	22	0.0	992.6	0	0.000	0.0
20100228 06:35	4.4	3.0	4.4	70	-0.5	6	10	45	0.0	992.5	0	0.000	0.0
20100228 06:40	4.3	4.3	4.3	70	-0.7	3	8	45	0.0	992.5	0	0.000	0.0
20100228 06:45	4.4	4.4	4.4	70	-0.6	2	5	45	0.0	992.5	0	0.000	0.0
20100228 06:50	4.4	4.4	4.4	70	-0.5	0	3	45	0.0	992.5	0	0.000	0.0
20100228 06:55	4.6	3.1	4.6	70	-0.4	6	16	112	0.0	992.6	0	0.000	0.0
20100228 07:00	4.6	3.1	4.6	70	-0.4	6	11	112	0.0	992.6	0	0.025	0.0
20100228 07:05	4.6	4.6	4.6	70	-0.4	5	8	135	0.0	992.6	0	0.000	0.0
20100228 07:10	4.6	4.6	4.6	70	-0.4	5	10	112	0.0	992.8	5	0.000	0.0
20100228 07:15	4.7	3.2	4.7	70	-0.3	6	11	112	0.0	992.8	10	0.000	0.0
20100228 07:20	4.8	2.6	4.8	69	-0.4	10	16	112	0.0	992.6	19	0.000	0.0
20100228 07:25	5.0	3.6	5.0	69	-0.2	6	16	112	0.0	992.6	24	0.000	0.0
20100228 07:30	5.1	5.1	5.1	69	-0.1	0	5	112	0.0	992.8	23	0.000	0.0
20100228 07:35	5.2	5.2	5.2	69	0.0	0	5	112	0.0	993.0	17	0.000	0.0
20100228 07:40	5.2	5.2	5.2	72	0.5	3	6	112	0.0	993.1	15	0.000	0.0
20100228 07:45	5.1	5.1	5.1	71	0.2	2	6	22	0.0	993.2	21	0.000	0.0
20100228 07:50	5.0	5.0	5.0	72	0.4	0	3	22	0.0	993.2	17	0.000	0.0
20100228 07:55	5.0	5.0	5.0	73	0.6	2	3	22	0.0	993.4	22	0.000	0.0
20100228 08:00	4.9	4.9	4.9	74	0.6	0	2	22	0.0	993.3	36	0.025	0.0
20100228 08:05	4.7	4.7	4.7	75	0.6	0	3	22	0.0	993.4	32	0.000	0.0
20100228 08:10	4.6	4.6	4.6	75	0.5	0	0	-100000	0.0	993.6	27	0.000	0.0
20100228 08:15	4.5	4.5	4.5	76	0.6	3	5	338	0.0	994.0	28	0.000	0.0
20100228 08:20	4.5	4.5	4.5	77	0.8	0	2	338	0.0	993.7	26	0.000	0.0
20100228 08:25	4.6	4.6	4.6	77	0.9	0	3	338	0.0	993.7	31	0.000	0.0
20100228 08:30	4.7	4.7	4.7	77	1.0	2	6	135	0.0	993.6	33	0.000	0.0
20100228 08:35	4.7	4.7	4.7	77	1.0	5	10	158	0.0	993.4	44	0.000	0.0
20100228 08:40	4.8	4.8	4.8	75	0.7	5	10	135	0.0	993.4	56	0.000	0.0
20100228 08:45	4.8	4.8	4.8	76	1.0	5	11	135	0.0	993.6	52	0.000	0.0
20100228 08:50	4.9	4.9	4.9	77	1.3	0	3	135	0.0	993.8	42	0.000	0.0
20100228 08:55	5.1	5.1	5.1	77	1.4	2	6	135	0.0	993.7	36	0.000	0.0
20100228 09:00	5.2	5.2	5.2	76	1.3	3	5	135	0.0	993.8	43	0.025	0.0
20100228 09:05	5.3	5.3	5.3	76	1.4	0	3	135	0.0	993.9	65	0.000	0.0
20100228 09:10	5.5	5.5	5.5	76	1.6	3	6	135	0.0	993.7	66	0.000	0.0
20100228 09:15	5.7	5.7	5.7	74	1.4	5	8	135	0.0	993.7	91	0.000	0.0
20100228 09:20	5.9	5.9	5.9	74	1.7	3	5	135	0.0	993.6	105	0.000	0.0
20100228 09:25	6.2	6.2	6.2	73	1.7	2	6	135	0.0	993.8	95	0.000	0.0
20100228 09:30	6.4	6.4	6.4	75	2.3	5	11	135	0.0	993.8	100	0.000	0.4
20100228 09:35	6.6	6.6	6.6	75	2.4	2	10	315	0.0	993.7	145	0.000	0.7
20100228 09:40	6.6	6.6	6.6	75	2.5	3	6	315	0.0	993.2	138	0.000	0.7
20100228 09:45	6.7	6.7	6.7	75	2.6	2	6	315	0.0	993.2	116	0.000	0.8
20100228 09:50	6.9	6.9	6.9	74	2.6	0	0	-100000	0.0	993.1	132	0.000	0.9
20100228 09:55	7.2	7.2	7.2	72	2.5	3	6	315	0.0	993.0	170	0.000	0.9
20100228 10:00	7.7	7.7	7.7	71	2.7	3	8	158	0.0	992.9	189	0.051	0.8
20100228 10:05	8.2	7.3	8.2	68	2.6	6	10	135	0.0	992.7	137	0.000	0.7
20100228 10:10	8.4	8.4	8.4	68	2.9	3	8	158	0.0	992.8	135	0.000	0.8
20100228 10:15	8.8	8.8	8.8	68	3.2	5	8	158	0.0	992.9	136	0.000	0.7
20100228 10:20	9.1	9.1	9.1	66	3.1	3	5	158	0.0	993.0	110	0.000	0.5
20100228 10:25	9.4	9.4	9.4	64	2.9	3	8	158	0.0	992.9	67	0.000	0.0
20100228 10:30	9.6	9.6	9.6	64	3.1	2	5	158	0.0	993.0	76	0.000	0.2
20100228 10:35	9.7	9.7	9.7	64	3.2	0	3	158	0.0	993.3	109	0.000	0.6
20100228 10:40	9.8	9.8	9.8	69	4.4	5	6	225	0.0	993.4	161	0.000	0.9
20100228 10:45	9.8	9.8	9.8	70	4.6	3	10	338	0.0	993.3	159	0.000	0.9
20100228 10:50	9.4	8.7	9.4	70	4.2	6	11	338	0.0	993.3	123	0.000	0.8
20100228 10:55	9.1	9.1	9.1	71	4.1	5	10	338	0.0	993.3	153	0.000	0.9
20100228 11:00	8.8	8.8	8.8	72	4.0	5	14	338	0.0	993.5	207	0.076	1.2
20100228 11:05	8.7	7.4	8.7	72	3.9	8	16	338	0.0	993.6	201	0.000	1.1
20100228 11:10	8.4	6.9	8.4	73	3.9	10	18	315	0.0	993.9	133	0.000	0.8
20100228 11:15	8.2	6.9	8.2	74	3.9	8	14	315	0.0	994.3	97	0.000	0.6
20100228 11:20	7.9	6.6	7.9	74	3.6	8	13	315	0.0	994.3	100	0.000	0.7
20100228 11:25	7.8	7.8	7.8	73	3.3	5	8	315	0.0	994.3	116	0.000	0.8
20100228 11:30	7.8	7.8	7.8	73	3.3	2	6	90	0.0	994.5	119	0.000	0.7
20100228 11:35	7.9	7.9	7.9	73	3.4	0	3	338	0.0	994.5	84	0.000	0.6
20100228 11:40	8.0	8.0	8.0	72	3.3	0	2	338	0.0	994.6	78	0.000	0.5
20100228 11:45	8.2	8.2	8.2	72	3.4	0	0	-100000	0.0	994.4	101	0.000	0.6
20100228 11:50	8.3	8.3	8.3	71	3.4	0	2	338	0.0	994.6	88	0.000	0.6
20100228 11:55	8.5	8.5	8.5	70	3.3	0	2	338	0.0	994.6	71	0.000	0.5
20100228 12:00	8.7	8.7	8.7	71	3.7	0	5	338	0.0	994.2	73	0.051	0.5
20100228 12:05	8.7	8.7	8.7	72	4.0	2	3	338	0.0	994.0	72	0.000	0.5
20100228 12:10	8.7	8.7	8.7	73	4.1	3	3	338	0.0	993.9	83	0.000	0.6
20100228 12:15	8.7	8.7	8.7	74	4.3	0	3	338	0.0	994.0	85	0.000	0.5
20100228 12:20	8.8	8.8	8.8	73	4.3	2	5	338	0.0	994.0	90	0.000	0.5
20100228 12:25	8.9	8.9	8.9	71	4.0	5	6	338	0.0	993.7	63	0.000	0.1
20100228 12:30	9.1	9.1	9.1	71	4.1	5	8	135	0.0	993.6	51	0.000	0.0
20100228 12:35	9.2	9.2	9.2	71	4.2	3	8	135	0.0	993.5	65	0.000	0.3
20100228 12:40	9.2	9.2	9.2	70	4.0	2	5	135	0.0	993.4	72	0.000	0.5
20100228 12:45	9.3	9.3	9.3	69	3.9	3	6	135	0.0	993.4	49	0.000	0.0
20100228 12:50	9.2	9.2	9.2	71	4.2	5	11	135	0.0	993.3	63	0.000	0.2
20100228 12:55	9.2	9.2	9.2	72	4.4	5	8	135	0.0	993.4	96	0.000	0.6
20100228 13:00	9.2	9.2	9.2	72	4.4	3	6	158	0.0	993.6	78	0.051	0.5
20100228 13:05	9.2	9.2	9.2	73	4.6	2	6	158	0.0	993.8	84	0.000	0.6
20100228 13:10	9.2	9.2	9.2	72	4.4	2	10	158	0.0	994.0	100	0.000	0.6
20100228 13:15	9.3	8.5	9.3	73	4.7	6	14	292	0.0	994.0	109	0.000	0.6
20100228 13:20	9.3	9.3	9.3	72	4.5	2	6	292	0.0	994.0	135	0.000	0.8
20100228 13:25	9.4	9.4	9.4	70	4.2	2	6	292	0.0	994.0	112	0.000	0.7
20100228 13:30	9.6	9.6	9.6	71	4.6	5	8	292	0.0	994.2	105	0.000	0.6
20100228 13:35	9.7	9.1	9.7	69	4.3	6	11	315	0.0	994.5	56	0.000	0.0
20100228 13:40	9.8	9.1	9.8	68	4.2	6	11	315	0.0	994.7	56	0.000	0.0
20100228 13:45	9.8	9.8	9.8	68	4.2	5	6	315	0.0	994.7	54	0.000	0.0
20100228 13:50	9.8	9.8	9.8	68	4.2	3	6	315	0.0	994.8	48	0.000	0.0
20100228 13:55	9.8	9.8	9.8	68	4.2	3	5	315	0.0	994.8	48	0.000	0.0
20100228 14:00	9.8	9.8	9.8	69	4.4	5	6	315	0.0	995.0	67	0.051	0.1
20100228 14:05	9.8	9.8	9.8	68	4.2	5	10	315	0.0	995.1	75	0.000	0.5
20100228 14:10	9.8	9.1	9.8	68	4.2	6	10	292	0.0	995.3	70	0.000	0.3
20100228 14:15	9.8	9.2	9.8	65	3.6	6	14	270	0.0	995.3	68	0.000	0.0
20100228 14:20	10.0	10.0	10.0	64	3.5	5	10	270	0.0	995.5	64	0.000	0.0
20100228 14:25	10.2	10.2	10.2	62	3.2	5	8	270	0.0	995.5	58	0.000	0.0
20100228 14:30	10.3	10.3	10.3	62	3.3	6	18	270	0.0	995.7	58	0.000	0.0
20100228 14:35	10.5	10.5	10.5	60	3.1	10	19	248	0.0	995.6	59	0.000	0.0
20100228 14:40	10.8	10.8	10.8	57	2.6	13	26	248	0.0	995.7	59	0.000	0.0
20100228 14:45	11.3	11.3	11.3	55	2.6	18	39	270	0.0	995.7	64	0.000	0.0
20100228 14:50	11.6	11.6	11.6	52	2.0	18	32	270	0.0	995.6	67	0.000	0.0
20100228 14:55	11.6	11.6	11.6	52	2.1	16	34	248	0.0	995.7	60	0.000	0.0
20100228 15:00	11.7	11.7	11.7	52	2.1	16	31	270	0.0	995.5	58	0.076	0.0
20100228 15:05	11.7	11.7	11.7	51	1.9	19	32	270	0.0	995.6	62	0.000	0.0
20100228 15:10	11.7	11.7	11.7	52	2.2	18	32	270	0.0	995.7	63	0.000	0.0
20100228 15:15	11.8	11.8	11.8	52	2.2	23	42	270	0.0	995.7	72	0.000	0.0
20100228 15:20	11.8	11.8	11.8	52	2.2	23	34	270	0.0	995.8	83	0.000	0.0
20100228 15:25	11.8	11.8	11.8	52	2.2	19	34	270	0.0	995.9	79	0.000	0.0
20100228 15:30	11.8	11.8	11.8	52	2.3	24	42	270	0.0	995.8	70	0.000	0.0
20100228 15:35	11.9	11.9	11.9	52	2.3	23	40	270	0.0	995.9	59	0.000	0.0
20100228 15:40	11.8	11.8	11.8	52	2.3	26	50	270	0.0	996.0	65	0.000	0.0
20100228 15:45	11.8	11.8	11.8	52	2.2	26	48	270	0.0	996.0	61	0.000	0.0
20100228 15:50	11.7	11.7	11.7	53	2.5	24	39	270	0.0	996.1	76	0.000	0.0
20100228 15:55	11.7	11.7	11.7	53	2.5	26	45	270	0.0	996.1	69	0.000	0.0
20100228 16:00	11.8	11.8	11.8	52	2.2	24	45	270	0.0	996.3	56	0.152	0.0
20100228 16:05	11.7	11.7	11.7	53	2.5	21	39	270	0.0	996.4	53	0.000	0.0
20100228 16:10	11.6	11.6	11.6	53	2.4	21	35	270	0.0	996.3	54	0.000	0.0
20100228 16:15	11.6	11.6	11.6	53	2.3	18	32	270	0.0	996.5	53	0.000	0.0
20100228 16:20	11.6	11.6	11.6	52	2.0	24	40	248	0.0	996.4	49	0.000	0.0
20100228 16:25	11.6	11.6	11.6	53	2.3	21	32	270	0.0	996.4	41	0.000	0.0
20100228 16:30	11.6	11.6	11.6	52	2.0	24	42	270	0.0	996.6	42	0.000	0.0
20100228 16:35	11.6	11.6	11.6	51	1.8	24	37	270	0.0	996.4	38	0.000	0.0
20100228 16:40	11.5	11.5	11.5	53	2.3	23	43	270	0.0	996.6	24	0.000	0.0
20100228 16:45	11.4	11.4	11.4	53	2.2	23	47	270	0.0	996.9	16	0.000	0.0
20100228 16:50	11.3	11.3	11.3	53	2.1	24	40	248	0.0	996.8	18	0.000	0.0
20100228 16:55	11.3	11.3	11.3	52	1.8	24	42	270	0.0	997.0	19	0.000	0.0
20100228 17:00	11.4	11.4	11.4	51	1.6	27	45	270	0.0	997.0	22	0.127	0.0
20100228 17:05	11.4	11.4	11.4	51	1.6	24	40	270	0.0	997.1	17	0.000	0.0
20100228 17:10	11.6	11.6	11.6	50	1.5	32	47	270	0.0	997.2	13	0.000	0.0
20100228 17:15	11.6	11.6	11.6	50	1.5	24	40	270	0.0	997.3	9	0.000	0.0
20100228 17:20	11.4	11.4	11.4	50	1.4	23	39	270	0.0	997.2	9	0.000	0.0
20100228 17:25	11.5	11.5	11.5	49	1.2	24	40	248	0.0	997.3	10	0.000	0.0
20100228 17:30	11.4	11.4	11.4	50	1.4	21	39	270	0.0	997.4	10	0.000	0.0
20100228 17:35	11.4	11.4	11.4	49	1.1	26	42	248	0.0	997.5	5	0.000	0.0
20100228 17:40	11.3	11.3	11.3	49	1.0	21	32	270	0.0	997.6	3	0.000	0.0
20100228 17:45	11.3	11.3	11.3	49	1.0	24	45	270	0.0	997.6	3	0.000	0.0
20100228 17:50	11.3	11.3	11.3	48	0.7	27	45	270	0.0	997.8	1	0.000	0.0
20100228 17:55	11.2	11.2	11.2	49	0.9	24	40	270	0.0	997.8	1	0.000	0.0
20100228 18:00	11.1	11.1	11.1	49	0.7	23	45	270	0.0	997.9	0	0.152	0.0
20100228 18:05	11.1	11.1	11.1	49	0.8	29	48	270	0.0	998.0	0	0.000	0.0
20100228 18:10	11.2	11.2	11.2	49	0.8	27	48	270	0.0	998.0	0	0.000	0.0
20100228 18:15	11.0	11.0	11.0	50	1.0	19	34	270	0.0	998.1	0	0.000	0.0
20100228 18:20	10.9	10.9	10.9	49	0.6	26	43	270	0.0	998.1	0	0.000	0.0
20100228 18:25	10.9	10.9	10.9	49	0.6	26	45	270	0.0	998.3	0	0.000	0.0
20100228 18:30	11.0	11.0	11.0	50	1.0	24	40	270	0.0	998.3	0	0.000	0.0
20100228 18:35	10.9	10.9	10.9	49	0.6	26	51	248	0.0	998.4	0	0.000	0.0
20100228 18:40	10.9	10.9	10.9	49	0.6	26	47	270	0.0	998.5	0	0.000	0.0
20100228 18:45	11.0	11.0	11.0	48	0.4	27	50	270	0.0	998.6	0	0.000	0.0
20100228 18:50	10.9	10.9	10.9	49	0.6	26	42	270	0.0	998.7	0	0.000	0.0
20100228 18:55	10.8	10.8	10.8	50	0.8	21	32	270	0.0	998.8	0	0.000	0.0
20100228 19:00	10.7	10.7	10.7	50	0.7	21	40	248	0.0	998.9	0	0.127	0.0
20100228 19:05	10.7	10.7	10.7	49	0.4	23	35	248	0.0	999.0	0	0.000	0.0
20100228 19:10	10.6	10.6	10.6	50	0.6	21	37	248	0.0	999.0	0	0.000	0.0
20100228 19:15	10.6	10.6	10.6	49	0.3	24	39	248	0.0	999.1	0	0.000	0.0
20100228 19:20	10.7	10.7	10.7	49	0.4	24	35	270	0.0	999.1	0	0.000	0.0
20100228 19:25	10.6	10.6	10.6	50	0.6	19	35	270	0.0	999.1	0	0.000	0.0
20100228 19:30	10.4	10.4	10.4	50	0.4	19	31	270	0.0	999.2	0	0.000	0.0
20100228 19:35	10.4	10.4	10.4	51	0.7	19	34	270	0.0	999.2	0	0.000	0.0
20100228 19:40	10.3	10.3	10.3	51	0.6	19	35	270	0.0	999.2	0	0.000	0.0
20100228 19:45	10.3	10.3	10.3	50	0.3	21	39	248	0.0	999.3	0	0.000	0.0
20100228 19:50	10.2	10.2	10.2	51	0.5	18	27	270	0.0	999.4	0	0.000	0.0
20100228 19:55	10.1	10.1	10.1	51	0.4	19	31	270	0.0	999.5	0	0.000	0.0
20100228 20:00	10.0	10.0	10.0	52	0.6	19	27	270	0.0	999.6	0	0.102	0.0
20100228 20:05	9.9	7.7	9.9	52	0.5	16	31	270	0.0	999.7	0	0.000	0.0
20100228 20:10	9.8	7.7	9.8	53	0.7	14	21	270	0.0	999.8	0	0.000	0.0
20100228 20:15	9.7	7.3	9.7	53	0.6	18	32	270	0.0	999.7	0	0.000	0.0
20100228 20:20	9.7	7.5	9.7	53	0.6	16	29	270	0.0	999.7	0	0.000	0.0
20100228 20:25	9.7	7.4	9.7	53	0.6	16	29	270	0.0	999.9	0	0.000	0.0
20100228 20:30	9.6	7.5	9.6	53	0.5	14	26	270	0.0	1000.0	0	0.000	0.0
20100228 20:35	9.6	7.9	9.6	53	0.4	11	23	270	0.0	1000.0	0	0.000	0.0
20100228 20:40	9.5	7.6	9.5	53	0.4	13	27	270	0.0	1000.0	0	0.000	0.0
20100228 20:45	9.4	7.2	9.4	54	0.6	14	24	270	0.0	1000.1	0	0.000	0.0
20100228 20:50	9.3	7.4	9.3	55	0.8	13	27	270	0.0	1000.2	0	0.000	0.0
20100228 20:55	9.3	7.1	9.3	55	0.7	14	24	270	0.0	1000.3	0	0.000	0.0
20100228 21:00	9.3	6.9	9.3	54	0.4	16	24	270	0.0	1000.4	0	0.076	0.0
20100228 21:05	9.2	7.0	9.2	55	0.7	14	27	270	0.0	1000.3	0	0.000	0.0
20100228 21:10	9.1	6.9	9.1	56	0.8	14	24	270	0.0	1000.3	0	0.000	0.0
20100228 21:15	8.9	6.9	8.9	56	0.6	13	23	270	0.0	1000.3	0	0.000	0.0
20100228 21:20	8.8	6.7	8.8	57	0.7	13	23	270	0.0	1000.3	0	0.000	0.0
20100228 21:25	8.7	6.4	8.7	57	0.7	14	23	270	0.0	1000.4	0	0.000	0.0
20100228 21:30	8.8	6.3	8.8	57	0.7	16	29	248	0.0	1000.4	0	0.000	0.0
20100228 21:35	8.7	6.4	8.7	57	0.6	14	23	270	0.0	1000.5	0	0.000	0.0
20100228 21:40	8.7	6.0	8.7	57	0.6	18	34	248	0.0	1000.5	0	0.000	0.0
20100228 21:45	8.7	6.0	8.7	58	0.9	18	34	270	0.0	1000.6	0	0.000	0.0
20100228 21:50	8.6	5.5	8.6	58	0.8	21	39	248	0.0	1000.7	0	0.000	0.0
20100228 21:55	8.5	5.6	8.5	59	0.9	19	34	270	0.0	1001.2	0	0.000	0.0
20100228 22:00	8.4	5.6	8.4	59	0.8	18	29	270	0.0	1001.0	0	0.076	0.0
20100228 22:05	8.3	5.3	8.3	60	1.0	19	29	270	0.0	1000.9	0	0.000	0.0
20100228 22:10	8.2	5.6	8.2	60	0.9	16	31	270	0.0	1001.1	0	0.000	0.0
20100228 22:15	8.2	5.3	8.2	61	1.1	18	32	270	0.0	1001.2	0	0.000	0.0
20100228 22:20	8.2	5.0	8.2	60	0.9	21	40	248	0.0	1001.1	0	0.000	0.0
20100228 22:25	8.2	5.5	8.2	61	1.1	16	27	248	0.0	1001.2	0	0.000	0.0
20100228 22:30	8.1	5.6	8.1	62	1.2	14	27	270	0.0	1001.4	0	0.000	0.0
20100228 22:35	7.9	5.1	7.9	62	1.1	18	31	270	0.0	1001.5	0	0.000	0.0
20100228 22:40	8.0	4.5	8.0	62	1.2	24	43	270	0.0	1001.6	0	0.000	0.0
20100228 22:45	8.2	4.8	8.2	62	1.3	23	39	270	0.0	1001.6	0	0.000	0.0
20100228 22:50	8.3	4.7	8.3	61	1.2	26	45	270	0.0	1001.7	0	0.000	0.0
20100228 22:55	8.3	4.8	8.3	60	1.0	26	48	270	0.0	1001.9	0	0.000	0.0
20100228 23:00	8.3	5.2	8.3	60	1.0	21	34	270	0.0	1001.9	0	0.076	0.0
20100228 23:05	8.2	5.1	8.2	61	1.1	21	35	270	0.0	1002.1	0	0.000	0.0
20100228 23:10	8.1	4.8	8.1	61	1.0	21	40	270	0.0	1002.1	0	0.000	0.0
20100228 23:15	8.1	4.5	8.1	61	1.0	24	40	270	0.0	1002.1	0	0.000	0.0
20100228 23:20	8.1	4.5	8.1	61	1.0	26	50	270	0.0	1002.2	0	0.000	0.0
20100228 23:25	8.1	4.3	8.1	60	0.8	27	42	270	0.0	1002.4	0	0.000	0.0
20100228 23:30	8.2	4.3	8.2	59	0.6	29	47	270	0.0	1002.6	0	0.000	0.0
20100228 23:35	8.2	4.2	8.2	58	0.4	31	50	270	0.0	1002.6	0	0.000	0.0
20100228 23:40	8.2	4.0	8.2	57	0.2	34	55	270	0.0	1002.6	0	0.000	0.0
20100228 23:45	8.2	4.2	8.2	57	0.2	31	53	270	0.0	1002.6	0	0.000	0.0
20100228 23:50	8.0	4.1	8.0	59	0.5	29	50	270	0.0	1002.6	0	0.000	0.0
20100228 23:55	7.8	4.1	7.8	60	0.6	26	47	270	0.0	1002.9	0	0.000	0.0



Please note the license to use and transfer of this data:
http://creativecommons.org/licenses/by-nc-sa/3.0/deed.en

Bitte beachten sie die Lizenz zur Verwertung und Weitergabe der Daten:
http://creativecommons.org/licenses/by-nc-sa/3.0/deed.de

zurück zur Übersicht der Archivdaten (Monats und Tagesdaten)

Cookies helfen bei der Bereitstellung von Inhalten. Durch die Nutzung dieser Seiten erklärst du dich damit einverstanden, dass Cookies auf deinem Rechner gespeichert werden. Weitere Information